Buje, Croatia
Current Conditions -  °F | °C
As of 5:30 PM on Wednesday 22 Oct 2014 (Local Time) from LJPZ Reporting Station
Few Clouds Few Clouds  
Wind Chill: 63°   Ceiling: Unl
Heat Index: 63°   Visibility: 6mi
Dew Point: 30°   Wind: 8mph
Humidity: 30%   Direction: 350°N
Pressure: 29.74"   Gusts: NA
Location:  45.42°N, 13.67°E
Report Text: LJPZ 221530Z 35007KT 9999 FEW050 17/M01 Q1007
Loading
Personal Weather Stations






























Interactive Weather Map
Tropical Storm Tracking
New forecast layout! Learn more

10-Day Weather Forecast

Advertisements
Track Severe Weather on mobile